Time;durP1;ratioP1;P1;durP2;ratioP2;P2;SDS_P1;SDS_P2;PMS_P1;PMS_P2;Temp;Humidity;BMP_temperature;BMP_pressure;BME280_temperature;BME280_humidity;BME280_pressure;Samples;Min_cycle;Max_cycle;Signal;HPM_P1;HPM_P2
2023/04/11 00:01:06;;;;;;;18.00;11.60;;;8.70;99.90;;;;;;5014472;28;20568;-80
2023/04/11 00:03:33;;;;;;;18.13;12.00;;;8.60;99.90;;;;;;4996807;28;20928;-80
2023/04/11 00:06:00;;;;;;;18.27;12.23;;;8.60;99.90;;;;;;5013371;28;20311;-82
2023/04/11 00:08:27;;;;;;;19.83;12.00;;;8.60;99.90;;;;;;5017098;28;20177;-80
2023/04/11 00:10:54;;;;;;;19.03;12.40;;;8.50;99.90;;;;;;5013891;28;20204;-81
2023/04/11 00:13:22;;;;;;;21.90;13.80;;;8.50;99.90;;;;;;5014330;28;20188;-80
2023/04/11 00:15:54;;;;;;;22.77;14.30;;;8.50;99.90;;;;;;4996875;28;20666;-81
2023/04/11 00:18:24;;;;;;;21.70;14.77;;;8.50;99.90;;;;;;4996444;28;20192;-82
2023/04/11 00:20:51;;;;;;;26.30;15.90;;;8.30;99.90;;;;;;4996389;28;20232;-81
2023/04/11 00:23:18;;;;;;;26.37;15.97;;;8.30;99.90;;;;;;5013855;28;20239;-81
2023/04/11 00:25:46;;;;;;;39.07;17.90;;;8.20;99.90;;;;;;5016170;28;20220;-81
2023/04/11 00:28:14;;;;;;;29.10;16.50;;;8.20;99.90;;;;;;4995406;28;20204;-82
2023/04/11 00:30:41;;;;;;;26.33;16.53;;;8.20;99.90;;;;;;4997303;28;20691;-81
2023/04/11 00:33:07;;;;;;;28.37;17.20;;;8.20;99.90;;;;;;4997626;28;20206;-81
2023/04/11 00:35:36;;;;;;;28.83;17.23;;;8.20;99.90;;;;;;5013534;28;20246;-81
2023/04/11 00:38:04;;;;;;;26.60;17.20;;;8.20;99.90;;;;;;5004969;28;20203;-81
2023/04/11 00:42:57;;;;;;;34.40;18.30;;;8.20;99.90;;;;;;5037664;22;20234;-81
2023/04/11 00:45:26;;;;;;;33.23;18.67;;;8.20;99.90;;;;;;5014841;28;20200;-81
2023/04/11 00:47:54;;;;;;;31.97;18.57;;;8.20;99.90;;;;;;5018628;28;20195;-81
2023/04/11 00:50:21;;;;;;;35.93;19.63;;;8.10;99.90;;;;;;4999325;28;20234;-83
2023/04/11 00:52:50;;;;;;;37.37;19.43;;;8.10;99.90;;;;;;5014836;28;20203;-82
2023/04/11 00:55:17;;;;;;;35.80;19.43;;;8.10;99.90;;;;;;5033006;28;20245;-82
2023/04/11 00:57:44;;;;;;;35.13;20.87;;;8.10;99.90;;;;;;5015185;28;20640;-82
2023/04/11 01:00:12;;;;;;;37.73;20.90;;;8.10;99.90;;;;;;5037481;28;20225;-81
2023/04/11 01:02:41;;;;;;;35.43;20.97;;;8.00;99.90;;;;;;5034715;28;20610;-82
2023/04/11 01:05:10;;;;;;;34.83;20.67;;;8.00;99.90;;;;;;5015682;28;20207;-82
2023/04/11 01:07:40;;;;;;;34.00;19.13;;;8.00;99.90;;;;;;5014872;28;20272;-81
2023/04/11 01:10:08;;;;;;;34.63;18.97;;;8.00;99.90;;;;;;5045321;23;20232;-81
2023/04/11 01:12:38;;;;;;;29.03;17.97;;;8.10;99.90;;;;;;5034149;28;20202;-80
2023/04/11 01:15:06;;;;;;;29.97;16.63;;;8.10;99.90;;;;;;4999519;28;20210;-80
2023/04/11 01:17:33;;;;;;;27.93;16.17;;;8.10;99.90;;;;;;5014807;28;20620;-80
2023/04/11 01:20:00;;;;;;;28.87;16.03;;;8.10;99.90;;;;;;5014218;28;20218;-81
2023/04/11 01:22:29;;;;;;;28.67;15.90;;;8.30;99.90;;;;;;5032467;28;20219;-81
2023/04/11 01:24:56;;;;;;;40.17;17.13;;;8.10;99.90;;;;;;5016989;28;20219;-81
2023/04/11 01:27:23;;;;;;;25.60;15.20;;;8.10;99.90;;;;;;5032528;28;20202;-82
2023/04/11 01:29:52;;;;;;;26.23;13.97;;;8.10;99.90;;;;;;5015006;28;20234;-81
2023/04/11 01:32:19;;;;;;;25.80;14.37;;;8.10;99.90;;;;;;5014450;28;20583;-82
2023/04/11 01:34:48;;;;;;;24.60;14.77;;;8.10;99.90;;;;;;5035135;28;20188;-81
2023/04/11 01:37:15;;;;;;;25.73;13.93;;;8.10;99.90;;;;;;5025633;28;20262;-81
2023/04/11 01:39:42;;;;;;;26.80;15.07;;;8.10;99.90;;;;;;5030786;28;20204;-82
2023/04/11 01:42:10;;;;;;;26.57;14.33;;;8.10;99.90;;;;;;5034121;28;20195;-80
2023/04/11 01:44:37;;;;;;;26.30;14.50;;;8.10;99.90;;;;;;5030376;28;20192;-82
2023/04/11 01:47:04;;;;;;;24.77;14.37;;;8.10;99.90;;;;;;5035194;28;20206;-81
2023/04/11 01:49:31;;;;;;;27.23;14.30;;;8.00;99.90;;;;;;5030517;28;20660;-82
2023/04/11 01:51:58;;;;;;;22.23;13.87;;;8.00;99.90;;;;;;5030719;28;20226;-82
2023/04/11 01:54:25;;;;;;;27.47;15.27;;;8.10;99.90;;;;;;5030900;28;20879;-81
2023/04/11 01:56:53;;;;;;;25.50;14.97;;;8.00;99.90;;;;;;5031793;28;20191;-80
2023/04/11 01:59:20;;;;;;;27.97;15.40;;;8.00;99.90;;;;;;5030429;28;20226;-80
2023/04/11 02:01:47;;;;;;;26.70;15.10;;;7.90;99.90;;;;;;5032363;28;20242;-81
2023/04/11 02:04:14;;;;;;;26.43;14.83;;;7.80;99.90;;;;;;5030472;28;20195;-81
2023/04/11 02:06:41;;;;;;;25.27;15.00;;;7.80;99.90;;;;;;5030484;28;20196;-81
2023/04/11 02:09:08;;;;;;;26.47;15.43;;;7.70;99.90;;;;;;5036639;28;20199;-81
2023/04/11 02:11:35;;;;;;;25.27;15.43;;;7.70;99.90;;;;;;5030493;28;20676;-81
2023/04/11 02:14:02;;;;;;;26.17;15.33;;;7.70;99.90;;;;;;5030279;28;20191;-81
2023/04/11 02:16:29;;;;;;;27.30;15.50;;;7.70;99.90;;;;;;5033054;28;20183;-82
2023/04/11 02:18:56;;;;;;;22.20;14.70;;;7.60;99.90;;;;;;5031916;28;20203;-82
2023/04/11 02:21:24;;;;;;;42.77;17.80;;;7.70;99.90;;;;;;5036852;28;20318;-83
2023/04/11 02:23:51;;;;;;;26.63;15.63;;;7.70;99.90;;;;;;5031265;28;20673;-80
2023/04/11 02:26:18;;;;;;;30.80;16.23;;;7.70;99.90;;;;;;5030223;28;20206;-81
2023/04/11 02:28:44;;;;;;;24.93;14.77;;;7.60;99.90;;;;;;5030653;28;20199;-80
2023/04/11 02:31:11;;;;;;;25.93;15.00;;;7.60;99.90;;;;;;5034470;28;20683;-81
2023/04/11 02:33:38;;;;;;;25.37;15.93;;;7.60;99.90;;;;;;5030441;28;20214;-81
2023/04/11 02:36:05;;;;;;;23.50;15.63;;;7.50;99.90;;;;;;5030313;28;20191;-80
2023/04/11 02:38:32;;;;;;;32.03;16.43;;;7.50;99.90;;;;;;5030469;28;20302;-80
2023/04/11 02:41:00;;;;;;;30.30;16.47;;;7.50;99.90;;;;;;5031625;28;20221;-81
2023/04/11 02:43:26;;;;;;;30.80;16.00;;;7.40;99.90;;;;;;5032766;28;20658;-81
2023/04/11 02:45:53;;;;;;;28.83;16.53;;;7.40;99.90;;;;;;5034060;28;20207;-79
2023/04/11 02:48:31;;;;;;;24.33;15.87;;;7.30;99.90;;;;;;5037082;28;20532;-81
2023/04/11 02:50:58;;;;;;;27.00;16.70;;;7.30;99.90;;;;;;5036289;28;20211;-80
2023/04/11 02:53:25;;;;;;;27.10;17.00;;;7.30;99.90;;;;;;5039100;28;20199;-83
2023/04/11 02:55:52;;;;;;;25.07;16.37;;;7.20;99.90;;;;;;5033494;28;20206;-79
2023/04/11 02:58:19;;;;;;;29.17;16.37;;;7.20;99.90;;;;;;5035126;28;20192;-79
2023/04/11 03:00:48;;;;;;;30.90;17.13;;;7.20;99.90;;;;;;5036288;28;20325;-79
2023/04/11 03:03:15;;;;;;;42.23;18.10;;;7.20;99.90;;;;;;5038390;28;20202;-80
2023/04/11 03:05:42;;;;;;;29.00;16.33;;;7.20;99.90;;;;;;5033466;28;20199;-81
2023/04/11 03:08:09;;;;;;;27.60;16.53;;;7.20;99.90;;;;;;5037145;28;20191;-80
2023/04/11 03:10:36;;;;;;;26.00;16.53;;;7.10;99.90;;;;;;5036168;28;20536;-81
2023/04/11 03:13:03;;;;;;;29.63;16.40;;;7.20;99.90;;;;;;5033413;28;20198;-81
2023/04/11 03:15:31;;;;;;;28.40;16.83;;;7.20;99.90;;;;;;5017016;28;20644;-82
2023/04/11 03:17:58;;;;;;;25.87;14.97;;;7.10;99.90;;;;;;5033466;28;20206;-82
2023/04/11 03:20:25;;;;;;;24.37;15.73;;;7.10;99.90;;;;;;5017239;28;20219;-82
2023/04/11 03:22:52;;;;;;;25.17;15.43;;;7.10;99.90;;;;;;5033366;28;20199;-82
2023/04/11 03:25:19;;;;;;;25.20;15.87;;;7.10;99.90;;;;;;5017086;28;20696;-80
2023/04/11 03:27:56;;;;;;;26.07;15.63;;;7.10;99.90;;;;;;5034226;28;20196;-81
2023/04/11 03:30:23;;;;;;;26.60;15.37;;;7.10;99.90;;;;;;5034454;28;20629;-82
2023/04/11 03:32:51;;;;;;;25.70;14.70;;;7.10;99.90;;;;;;5033248;28;20227;-83
2023/04/11 03:35:19;;;;;;;26.47;14.90;;;7.10;99.90;;;;;;5033323;28;20192;-81
2023/04/11 03:37:47;;;;;;;23.83;15.33;;;7.00;99.90;;;;;;5034950;28;20199;-80
2023/04/11 03:40:13;;;;;;;24.47;15.17;;;7.00;99.90;;;;;;5032815;28;20191;-80
2023/04/11 03:42:40;;;;;;;25.67;14.23;;;7.00;99.90;;;;;;5034300;28;20566;-81
2023/04/11 03:45:08;;;;;;;27.33;15.67;;;7.00;99.90;;;;;;5034467;28;20541;-80
2023/04/11 03:47:35;;;;;;;25.17;15.17;;;7.00;99.90;;;;;;5032875;28;20195;-80
2023/04/11 03:50:02;;;;;;;26.63;15.23;;;7.00;99.90;;;;;;5032705;28;20195;-80
2023/04/11 03:52:29;;;;;;;24.03;15.33;;;7.00;99.90;;;;;;5032587;28;20234;-80
2023/04/11 03:54:56;;;;;;;26.17;14.90;;;7.00;99.90;;;;;;5034010;28;20210;-80
2023/04/11 03:57:25;;;;;;;24.37;14.87;;;7.00;99.90;;;;;;5032200;28;20201;-80
2023/04/11 03:59:57;;;;;;;24.27;15.20;;;7.00;99.90;;;;;;5032646;28;20184;-82
2023/04/11 04:02:26;;;;;;;23.87;14.63;;;7.00;99.90;;;;;;5031852;28;20216;-78
2023/04/11 04:04:54;;;;;;;27.73;15.07;;;7.10;99.90;;;;;;5032188;28;20207;-79
2023/04/11 04:07:21;;;;;;;24.87;15.03;;;7.10;99.90;;;;;;5033714;28;20663;-78
2023/04/11 04:09:47;;;;;;;24.20;14.17;;;7.10;99.90;;;;;;5031848;28;20206;-80
2023/04/11 04:12:16;;;;;;;22.80;14.40;;;7.00;99.90;;;;;;5032347;28;20206;-79
2023/04/11 04:14:46;;;;;;;26.00;14.70;;;7.00;99.90;;;;;;5033352;28;20230;-80
2023/04/11 04:17:15;;;;;;;24.23;14.93;;;7.10;99.90;;;;;;5032055;28;20203;-81
2023/04/11 04:19:43;;;;;;;27.10;15.70;;;7.20;99.90;;;;;;5032443;28;20199;-80
2023/04/11 04:22:16;;;;;;;23.90;14.83;;;7.10;99.90;;;;;;5032234;28;20621;-82
2023/04/11 04:24:45;;;;;;;25.20;15.57;;;7.10;99.90;;;;;;5032214;28;20266;-80
2023/04/11 04:27:17;;;;;;;23.87;15.33;;;7.10;99.90;;;;;;5032159;28;20206;-80
2023/04/11 04:29:47;;;;;;;23.77;15.23;;;7.20;99.90;;;;;;5032729;28;20230;-80
2023/04/11 04:32:21;;;;;;;27.43;16.13;;;7.20;99.90;;;;;;5036749;28;20631;-79
2023/04/11 04:34:53;;;;;;;23.20;15.27;;;7.30;99.90;;;;;;5032695;28;20246;-79
2023/04/11 04:37:26;;;;;;;25.53;15.43;;;7.30;99.90;;;;;;5034100;28;20196;-76
2023/04/11 04:40:04;;;;;;;24.53;14.97;;;7.20;99.90;;;;;;5031595;28;20223;-80
2023/04/11 04:42:35;;;;;;;25.37;16.13;;;7.30;99.90;;;;;;5014031;28;20231;-80
2023/04/11 04:45:03;;;;;;;25.43;15.80;;;7.30;99.90;;;;;;5031712;28;20541;-79
2023/04/11 04:47:32;;;;;;;25.67;15.83;;;7.40;99.90;;;;;;5031351;28;20282;-79
2023/04/11 04:50:03;;;;;;;25.37;16.20;;;7.40;99.90;;;;;;5032963;28;20180;-79
2023/04/11 04:52:30;;;;;;;25.73;16.37;;;7.40;99.90;;;;;;5032392;28;20198;-80
2023/04/11 04:54:57;;;;;;;25.57;16.40;;;7.40;99.90;;;;;;5031570;28;20671;-79
2023/04/11 04:57:26;;;;;;;27.67;16.70;;;7.40;99.90;;;;;;5031308;28;20211;-77
2023/04/11 04:59:57;;;;;;;27.07;17.07;;;7.50;99.90;;;;;;5031274;28;20210;-81
2023/04/11 05:02:25;;;;;;;27.77;17.27;;;7.60;99.90;;;;;;5031835;28;20233;-79
2023/04/11 05:04:53;;;;;;;28.20;16.47;;;7.60;99.90;;;;;;5031173;28;20218;-78
2023/04/11 05:07:20;;;;;;;29.80;17.37;;;7.60;99.90;;;;;;5031052;28;20655;-79
2023/04/11 05:09:50;;;;;;;27.13;15.73;;;7.60;99.90;;;;;;5030581;28;20214;-79
2023/04/11 05:12:25;;;;;;;27.90;16.87;;;7.60;99.90;;;;;;5030975;28;20215;-79
2023/04/11 05:14:54;;;;;;;26.13;15.83;;;7.70;99.90;;;;;;5014634;28;20201;-79
2023/04/11 05:17:22;;;;;;;27.43;17.00;;;7.70;99.90;;;;;;5032402;28;20667;-80
2023/04/11 05:19:51;;;;;;;26.43;16.70;;;7.70;99.90;;;;;;5031013;28;20230;-81
2023/04/11 05:22:18;;;;;;;27.00;17.33;;;7.70;99.90;;;;;;5030363;28;20249;-79
2023/04/11 05:24:45;;;;;;;25.97;16.90;;;7.80;99.90;;;;;;5030958;28;20211;-80
2023/04/11 05:27:18;;;;;;;24.60;15.93;;;7.90;99.90;;;;;;5030597;28;20188;-80
2023/04/11 05:29:45;;;;;;;26.23;16.20;;;8.00;99.90;;;;;;5030760;28;20667;-80
2023/04/11 05:32:12;;;;;;;26.50;16.47;;;8.10;99.90;;;;;;5032415;28;20274;-80
2023/04/11 05:34:51;;;;;;;29.43;16.30;;;8.10;99.90;;;;;;5037076;28;20259;-82
2023/04/11 05:37:18;;;;;;;25.20;15.63;;;8.10;99.90;;;;;;5030926;28;20229;-82
2023/04/11 05:39:46;;;;;;;27.13;17.20;;;8.20;99.90;;;;;;5032821;28;20534;-80
2023/04/11 05:42:16;;;;;;;27.40;17.27;;;8.30;99.90;;;;;;5031061;28;20677;-80
2023/04/11 05:44:43;;;;;;;30.43;17.20;;;8.30;99.90;;;;;;5031838;28;20215;-81
2023/04/11 05:47:10;;;;;;;28.57;16.97;;;8.30;99.90;;;;;;5030870;28;20203;-81
2023/04/11 05:49:41;;;;;;;28.63;17.57;;;8.30;99.90;;;;;;5030499;28;20596;-79
2023/04/11 05:52:08;;;;;;;27.03;16.37;;;8.40;99.90;;;;;;5030398;28;20602;-80
2023/04/11 05:54:36;;;;;;;26.30;16.10;;;8.60;99.90;;;;;;5031665;28;20199;-80
2023/04/11 05:57:03;;;;;;;26.80;16.63;;;8.60;99.90;;;;;;5029816;28;20203;-80
2023/04/11 05:59:31;;;;;;;26.23;15.60;;;8.60;99.90;;;;;;5030539;28;20198;-80
2023/04/11 06:01:59;;;;;;;26.67;16.53;;;8.60;99.90;;;;;;5030307;28;20218;-80
2023/04/11 06:04:26;;;;;;;25.20;16.33;;;8.70;99.90;;;;;;5030371;28;20206;-81
2023/04/11 06:06:54;;;;;;;23.17;16.17;;;8.80;99.90;;;;;;5031573;28;20191;-80
2023/04/11 06:09:21;;;;;;;23.43;15.30;;;8.90;99.90;;;;;;5032678;28;20214;-80
2023/04/11 06:11:48;;;;;;;26.73;16.00;;;9.00;99.90;;;;;;5030939;28;20692;-80
2023/04/11 06:14:15;;;;;;;22.20;14.53;;;9.10;99.90;;;;;;5030694;28;20410;-80
2023/04/11 06:16:43;;;;;;;20.63;14.00;;;9.20;99.90;;;;;;5030311;28;20300;-83
2023/04/11 06:19:13;;;;;;;22.77;14.73;;;9.30;99.90;;;;;;5033998;28;20192;-81
2023/04/11 06:21:53;;;;;;;22.67;14.20;;;9.30;99.90;;;;;;5035857;28;20281;-83
2023/04/11 06:24:38;;;;;;;23.33;15.17;;;9.40;99.90;;;;;;5036203;28;20219;-82
2023/04/11 06:27:08;;;;;;;21.37;13.73;;;9.50;99.90;;;;;;5034246;28;20230;-83
2023/04/11 06:29:37;;;;;;;21.50;13.27;;;9.70;99.90;;;;;;5028265;23;20240;-83
2023/04/11 06:32:06;;;;;;;19.57;12.97;;;9.70;99.90;;;;;;5016529;28;20271;-82
2023/04/11 06:34:33;;;;;;;26.90;13.87;;;9.80;99.90;;;;;;4998766;28;20299;-80
2023/04/11 06:37:00;;;;;;;18.77;12.33;;;9.90;99.90;;;;;;4999481;28;20202;-82
2023/04/11 06:39:27;;;;;;;23.30;12.77;;;10.10;99.90;;;;;;4984763;28;20239;-81
2023/04/11 06:42:00;;;;;;;23.93;13.50;;;10.30;99.90;;;;;;5022446;28;20220;-82
2023/04/11 06:44:28;;;;;;;21.57;13.03;;;10.30;99.90;;;;;;4998948;28;20184;-83
2023/04/11 06:47:02;;;;;;;23.70;13.07;;;10.50;99.90;;;;;;4997842;28;20649;-83
2023/04/11 06:49:30;;;;;;;18.93;12.47;;;10.50;99.90;;;;;;4998707;28;20294;-79
2023/04/11 06:51:58;;;;;;;21.27;13.23;;;10.60;99.90;;;;;;5006514;28;20677;-81
2023/04/11 06:54:25;;;;;;;25.37;14.20;;;10.70;99.90;;;;;;4990838;28;20246;-81
2023/04/11 06:56:52;;;;;;;23.70;13.80;;;10.70;99.90;;;;;;4996531;28;20200;-81
2023/04/11 06:59:19;;;;;;;19.60;12.10;;;10.80;99.90;;;;;;4996990;28;20548;-81
2023/04/11 07:01:47;;;;;;;18.63;12.40;;;10.90;99.90;;;;;;5014628;28;20212;-79
2023/04/11 07:04:15;;;;;;;19.30;11.87;;;11.00;99.90;;;;;;5015055;28;20196;-79
2023/04/11 07:06:42;;;;;;;18.03;12.03;;;11.20;99.90;;;;;;4996644;28;20676;-82
2023/04/11 07:09:11;;;;;;;19.60;13.03;;;11.20;99.90;;;;;;5005012;28;20630;-80
2023/04/11 07:11:38;;;;;;;20.80;13.30;;;11.30;99.90;;;;;;4996615;28;20196;-79
2023/04/11 07:14:05;;;;;;;21.30;13.27;;;11.30;99.90;;;;;;5009627;28;20615;-78
2023/04/11 07:16:33;;;;;;;20.83;12.43;;;11.40;99.90;;;;;;5014218;28;20267;-78
2023/04/11 07:19:02;;;;;;;17.43;11.87;;;11.50;99.90;;;;;;4995696;28;20210;-78
2023/04/11 07:21:31;;;;;;;16.60;11.10;;;11.70;99.90;;;;;;4996531;28;20243;-80
2023/04/11 07:23:59;;;;;;;16.73;11.20;;;11.70;99.90;;;;;;4994437;28;20267;-78
2023/04/11 07:26:30;;;;;;;14.50;10.10;;;11.90;99.90;;;;;;5004655;28;20652;-77
2023/04/11 07:29:00;;;;;;;15.13;9.63;;;12.00;99.90;;;;;;4998970;28;20227;-78
2023/04/11 07:31:28;;;;;;;18.20;10.17;;;12.10;99.90;;;;;;5015738;28;20192;-80
2023/04/11 07:33:54;;;;;;;16.60;10.57;;;12.10;99.90;;;;;;5016228;28;20737;-79
2023/04/11 07:36:22;;;;;;;16.03;10.13;;;12.20;99.90;;;;;;5033050;28;20657;-77
2023/04/11 07:38:49;;;;;;;16.47;10.10;;;12.30;99.90;;;;;;5033424;28;20656;-80
2023/04/11 07:41:16;;;;;;;19.77;10.20;;;12.30;99.90;;;;;;5033075;28;20188;-80
2023/04/11 07:43:46;;;;;;;15.40;9.53;;;12.40;99.90;;;;;;5016109;28;20195;-78
2023/04/11 07:46:14;;;;;;;13.87;8.77;;;12.50;99.90;;;;;;5014423;28;20227;-78
2023/04/11 07:48:41;;;;;;;15.13;9.37;;;12.60;99.90;;;;;;5014056;28;20544;-79
2023/04/11 07:51:08;;;;;;;14.17;9.33;;;12.70;99.90;;;;;;5031744;28;21036;-79
2023/04/11 07:53:36;;;;;;;13.53;9.00;;;12.70;99.90;;;;;;5032949;28;20287;-76
2023/04/11 07:56:03;;;;;;;13.73;8.53;;;12.80;99.90;;;;;;5015414;28;20196;-77
2023/04/11 07:58:30;;;;;;;12.67;8.93;;;12.90;99.90;;;;;;5012309;28;20196;-77
2023/04/11 08:00:58;;;;;;;17.97;11.23;;;12.90;99.90;;;;;;5015810;28;20231;-79
2023/04/11 08:03:27;;;;;;;14.90;9.73;;;13.00;99.90;;;;;;4998809;28;20288;-77
2023/04/11 08:05:58;;;;;;;17.00;8.87;;;13.10;99.90;;;;;;5015295;28;20265;-80
2023/04/11 08:08:25;;;;;;;10.17;6.93;;;13.20;99.90;;;;;;5014987;28;20274;-78
2023/04/11 08:10:52;;;;;;;9.40;6.30;;;13.10;99.90;;;;;;5015137;28;20198;-79
2023/04/11 08:13:19;;;;;;;8.03;5.60;;;13.20;99.90;;;;;;5015209;28;20203;-79
2023/04/11 08:15:46;;;;;;;11.30;5.60;;;13.40;99.90;;;;;;5025292;28;20194;-78
2023/04/11 08:18:15;;;;;;;10.70;6.03;;;13.50;99.90;;;;;;5031361;28;20207;-77
2023/04/11 08:20:42;;;;;;;7.03;5.10;;;13.70;99.90;;;;;;5030776;28;20286;-77
2023/04/11 08:23:10;;;;;;;6.93;4.90;;;14.00;99.90;;;;;;5014875;28;20217;-79
2023/04/11 08:25:37;;;;;;;8.23;4.83;;;14.50;99.90;;;;;;5014526;28;20208;-78
2023/04/11 08:28:05;;;;;;;8.40;4.60;;;15.10;99.90;;;;;;5014542;28;20203;-84
2023/04/11 08:30:32;;;;;;;7.20;4.60;;;15.50;99.90;;;;;;5018209;28;20257;-79
2023/04/11 08:32:59;;;;;;;6.10;4.20;;;16.00;99.90;;;;;;5015264;28;20185;-72
2023/04/11 08:35:26;;;;;;;6.70;4.13;;;16.20;99.90;;;;;;5032143;28;20187;-70
2023/04/11 08:37:53;;;;;;;5.93;4.47;;;16.30;99.90;;;;;;5014451;28;20259;-72
2023/04/11 08:40:20;;;;;;;6.00;4.07;;;16.70;99.90;;;;;;5031069;28;20188;-73
2023/04/11 08:42:48;;;;;;;4.60;3.60;;;17.00;99.90;;;;;;5029534;28;20227;-72
2023/04/11 08:45:18;;;;;;;5.53;3.60;;;17.10;99.90;;;;;;5014359;28;20184;-74
2023/04/11 08:47:45;;;;;;;5.57;3.63;;;17.00;99.90;;;;;;5031507;28;20608;-72
2023/04/11 08:50:16;;;;;;;4.53;3.33;;;16.70;99.90;;;;;;5007522;28;20184;-74
2023/04/11 08:52:52;;;;;;;5.73;3.50;;;16.90;99.90;;;;;;5030354;28;20195;-72
2023/04/11 08:58:43;;;;;;;4.27;3.00;;;17.10;99.90;;;;;;5183709;23;20239;-74
2023/04/11 09:01:27;;;;;;;7.32;3.70;;;17.20;99.90;;;;;;5000880;28;20443;-72
2023/04/11 09:03:54;;;;;;;5.57;3.30;;;17.00;99.90;;;;;;5019275;28;20200;-74
2023/04/11 09:06:26;;;;;;;4.40;3.10;;;16.90;99.90;;;;;;5002662;28;20185;-74
2023/04/11 09:08:53;;;;;;;5.13;3.10;;;17.10;99.90;;;;;;4995091;28;20696;-72
2023/04/11 09:11:20;;;;;;;6.57;3.50;;;17.30;99.90;;;;;;5013084;28;20537;-72
2023/04/11 09:14:07;;;;;;;7.30;3.87;;;17.50;99.90;;;;;;5013373;28;20199;-78
2023/04/11 09:16:34;;;;;;;4.43;3.07;;;17.80;99.90;;;;;;5031681;28;20197;-72
2023/04/11 09:19:02;;;;;;;4.93;3.30;;;17.90;99.90;;;;;;5012881;28;20450;-74
2023/04/11 09:21:28;;;;;;;4.80;2.53;;;18.30;99.90;;;;;;5043424;28;20249;-77
2023/04/11 09:24:16;;;;;;;3.47;2.50;;;18.30;99.90;;;;;;5031188;28;20192;-75
2023/04/11 09:26:43;;;;;;;3.63;2.70;;;18.30;99.90;;;;;;5012608;28;20534;-71
2023/04/11 09:29:10;;;;;;;6.37;2.70;;;18.20;99.90;;;;;;5013520;28;20197;-72
2023/04/11 09:31:40;;;;;;;4.57;2.80;;;18.30;99.90;;;;;;5013909;28;20664;-71
2023/04/11 09:34:07;;;;;;;9.27;3.00;;;18.50;99.90;;;;;;5013592;28;20199;-71
2023/04/11 09:36:34;;;;;;;3.40;2.33;;;18.70;99.90;;;;;;5013492;28;20282;-72
2023/04/11 09:39:20;;;;;;;4.07;2.90;;;18.90;99.90;;;;;;5014681;28;20195;-83
2023/04/11 09:41:49;;;;;;;3.90;2.60;;;18.60;99.90;;;;;;5020566;28;20196;-81
2023/04/11 09:44:36;;;;;;;4.63;2.57;;;18.60;99.90;;;;;;5002144;28;20215;-83
2023/04/11 09:47:03;;;;;;;4.53;2.50;;;18.60;99.90;;;;;;5011517;28;20195;-83
2023/04/11 09:49:33;;;;;;;4.80;3.00;;;18.80;99.90;;;;;;5014466;28;20235;-83
2023/04/11 09:52:00;;;;;;;5.27;3.60;;;18.60;99.90;;;;;;5031220;28;20188;-82
2023/04/11 09:54:28;;;;;;;5.10;3.87;;;18.20;99.90;;;;;;5013723;28;20604;-85
2023/04/11 09:56:58;;;;;;;4.63;3.90;;;18.10;99.90;;;;;;5030623;28;20575;-79
2023/04/11 09:59:29;;;;;;;5.70;3.97;;;18.20;99.90;;;;;;4987823;28;20196;-81
2023/04/11 10:01:57;;;;;;;4.83;3.70;;;18.40;99.90;;;;;;5013404;28;20246;-81
2023/04/11 10:04:27;;;;;;;10.07;4.90;;;18.70;99.90;;;;;;4999402;28;20191;-84
2023/04/11 10:07:01;;;;;;;8.63;4.03;;;18.70;99.90;;;;;;5023625;28;20196;-79
2023/04/11 10:09:28;;;;;;;5.67;4.00;;;19.10;99.90;;;;;;5023757;28;20187;-79
2023/04/11 10:11:56;;;;;;;5.87;3.93;;;19.00;99.90;;;;;;5031559;28;20195;-82
2023/04/11 10:14:38;;;;;;;5.67;4.10;;;19.20;99.90;;;;;;4996661;28;20287;-77
2023/04/11 10:17:16;;;;;;;6.40;4.27;;;19.60;99.90;;;;;;4996187;28;20206;-79
2023/04/11 10:19:55;;;;;;;9.10;4.50;;;19.60;99.90;;;;;;5013158;28;20191;-78
2023/04/11 10:22:45;;;;;;;9.27;5.10;;;19.80;99.90;;;;;;5012861;28;20221;-80
2023/04/11 10:25:15;;;;;;;10.57;4.73;;;20.10;99.90;;;;;;4996679;28;20219;-80
2023/04/11 10:27:52;;;;;;;6.10;4.47;;;20.40;99.90;;;;;;5007926;28;20287;-81
2023/04/11 10:31:06;;;;;;;5.20;4.33;;;20.50;98.40;;;;;;4983033;28;20200;-79
2023/04/11 10:34:19;;;;;;;6.23;4.40;;;20.60;94.80;;;;;;4981316;28;20236;-79
2023/04/11 10:37:12;;;;;;;5.43;4.03;;;20.60;94.80;;;;;;4966551;28;20197;-78
2023/04/11 10:39:54;;;;;;;13.43;4.50;;;21.10;93.50;;;;;;4974531;28;20200;-80
2023/04/11 10:42:40;;;;;;;6.57;4.07;;;21.10;91.10;;;;;;4954205;28;20217;-78
2023/04/11 10:45:28;;;;;;;5.50;4.20;;;21.10;91.60;;;;;;4977922;23;20307;-77
2023/04/11 10:48:26;;;;;;;7.50;3.80;;;21.10;91.30;;;;;;4986798;28;20227;-79
2023/04/11 10:51:52;;;;;;;6.13;3.77;;;21.20;90.60;;;;;;5109786;23;20233;-79
2023/04/11 10:54:34;;;;;;;6.73;3.70;;;21.10;84.90;;;;;;4986424;28;20203;-77
2023/04/11 10:57:01;;;;;;;13.10;3.90;;;20.80;85.90;;;;;;4984565;28;20194;-81
2023/04/11 10:59:33;;;;;;;10.90;3.90;;;20.60;81.20;;;;;;4987829;28;20189;-77
2023/04/11 11:02:00;;;;;;;7.50;3.67;;;20.30;82.30;;;;;;4967071;28;20655;-80
2023/04/11 11:04:40;;;;;;;7.63;4.00;;;20.20;84.00;;;;;;4967374;28;20197;-83
2023/04/11 11:07:16;;;;;;;4.97;3.37;;;20.00;84.20;;;;;;4993942;28;20979;-84
2023/04/11 11:09:51;;;;;;;4.53;3.27;;;20.10;84.80;;;;;;4991151;28;20198;-88
2023/04/11 11:12:21;;;;;;;4.43;3.40;;;19.80;85.90;;;;;;4996610;28;20200;-84
2023/04/11 11:14:52;;;;;;;5.83;3.87;;;19.70;85.70;;;;;;4986597;28;20193;-83
2023/04/11 11:17:22;;;;;;;6.50;3.73;;;19.60;84.00;;;;;;4994987;28;20193;-82
2023/04/11 11:19:49;;;;;;;5.13;3.67;;;19.60;80.40;;;;;;4986512;28;20189;-82
2023/04/11 11:22:17;;;;;;;6.40;3.90;;;19.50;81.40;;;;;;4980710;28;20216;-82
2023/04/11 11:24:44;;;;;;;7.33;3.80;;;19.40;77.70;;;;;;4973955;28;20342;-83
2023/04/11 11:27:19;;;;;;;6.23;3.80;;;19.10;79.50;;;;;;4989003;28;20189;-78
2023/04/11 11:30:04;;;;;;;4.50;3.53;;;18.90;82.90;;;;;;4974626;28;20225;-79
2023/04/11 11:32:31;;;;;;;5.07;3.83;;;18.70;85.70;;;;;;4932030;28;20200;-78
2023/04/11 11:34:59;;;;;;;5.57;4.07;;;18.90;88.70;;;;;;5009128;28;20220;-79
2023/04/11 11:37:26;;;;;;;5.47;3.90;;;18.90;88.80;;;;;;4993993;28;20192;-82
2023/04/11 11:39:53;;;;;;;6.23;4.07;;;18.90;90.30;;;;;;4994740;28;20204;-88
2023/04/11 11:42:23;;;;;;;6.77;4.37;;;18.80;91.00;;;;;;4994153;28;20283;-77
2023/04/11 11:44:50;;;;;;;6.17;4.23;;;18.60;91.60;;;;;;4980498;28;20193;-81
2023/04/11 11:47:44;;;;;;;5.57;4.10;;;18.40;91.70;;;;;;4978259;28;20197;-79
2023/04/11 11:50:25;;;;;;;7.27;4.50;;;17.90;92.80;;;;;;5009182;28;20270;-84
2023/04/11 11:52:53;;;;;;;6.33;4.33;;;17.50;93.90;;;;;;5018980;28;20227;-85
2023/04/11 11:55:21;;;;;;;5.90;4.43;;;17.40;95.80;;;;;;5003797;28;20196;-80
2023/04/11 11:57:49;;;;;;;5.90;4.70;;;17.50;95.40;;;;;;5004941;28;20206;-80
2023/04/11 12:00:24;;;;;;;6.63;4.03;;;17.50;95.80;;;;;;5026032;28;20184;-79
2023/04/11 12:03:09;;;;;;;7.03;4.50;;;17.60;95.10;;;;;;5007196;28;20208;-80
2023/04/11 12:05:37;;;;;;;8.20;4.37;;;18.00;94.60;;;;;;5015533;28;20631;-83
2023/04/11 12:08:06;;;;;;;9.60;4.37;;;18.20;94.70;;;;;;4997274;28;20204;-80
2023/04/11 12:10:42;;;;;;;6.70;4.63;;;18.40;92.50;;;;;;4996049;28;20230;-84
2023/04/11 12:13:18;;;;;;;6.10;4.70;;;18.50;92.60;;;;;;4995725;28;20428;-85
2023/04/11 12:15:51;;;;;;;6.13;4.70;;;18.70;90.30;;;;;;5003558;28;20625;-83
2023/04/11 12:18:27;;;;;;;7.67;4.90;;;18.30;90.90;;;;;;5029649;28;20193;-84
2023/04/11 12:20:54;;;;;;;6.13;4.80;;;18.30;91.10;;;;;;5011497;28;20203;-82
2023/04/11 12:23:24;;;;;;;6.67;5.20;;;18.20;91.40;;;;;;5012779;28;20248;-83
2023/04/11 12:25:51;;;;;;;8.80;5.20;;;17.90;91.50;;;;;;4997807;28;20215;-80
2023/04/11 12:28:18;;;;;;;8.37;4.90;;;17.70;92.20;;;;;;5029962;28;20574;-85
2023/04/11 12:30:47;;;;;;;6.97;4.80;;;17.40;92.40;;;;;;5000094;28;20400;-81
2023/04/11 12:33:17;;;;;;;6.67;4.97;;;17.30;93.30;;;;;;5021668;28;20192;-84
2023/04/11 12:35:44;;;;;;;7.33;5.33;;;17.10;94.20;;;;;;4995678;28;20197;-81
2023/04/11 12:38:26;;;;;;;7.03;5.00;;;16.90;94.90;;;;;;5025021;28;20543;-81
2023/04/11 12:40:53;;;;;;;6.23;4.97;;;16.70;96.00;;;;;;5014972;28;20194;-79
2023/04/11 12:43:40;;;;;;;6.83;5.20;;;16.60;97.10;;;;;;5014349;28;20212;-80
2023/04/11 12:46:27;;;;;;;6.67;5.17;;;16.60;97.10;;;;;;4994508;28;20191;-81
2023/04/11 12:58:44;;;;;;;7.70;5.33;;;16.60;99.30;;;;;;4994007;28;20237;-83
2023/04/11 13:01:18;;;;;;;7.33;5.50;;;16.90;99.60;;;;;;4974883;28;20205;-80
2023/04/11 13:03:45;;;;;;;9.37;6.00;;;17.30;98.20;;;;;;4957920;28;20218;-79
2023/04/11 13:06:12;;;;;;;7.25;5.85;;;17.60;97.60;;;;;;4970973;28;20420;-78
2023/04/11 13:08:39;;;;;;;8.47;5.60;;;18.00;96.30;;;;;;4990805;28;20189;-83
2023/04/11 13:11:06;;;;;;;7.13;5.40;;;18.10;95.60;;;;;;4985709;28;20627;-79